Time;durP1;ratioP1;P1;durP2;ratioP2;P2;SDS_P1;SDS_P2;PMS_P1;PMS_P2;Temp;Humidity;BMP_temperature;BMP_pressure;BME280_temperature;BME280_humidity;BME280_pressure;Samples;Min_cycle;Max_cycle;Signal;HPM_P1;HPM_P2
2021/08/03 00:02:21;;;;;;;7.25;3.38;;;615.30;2432.00;;;;;;5032203;28;20128;-81
2021/08/03 00:04:51;;;;;;;9.23;4.35;;;615.20;2432.00;;;;;;5032596;28;20021;-80
2021/08/03 00:07:21;;;;;;;10.48;5.85;;;;;;;;;;5032699;28;20466;-80
2021/08/03 00:09:47;;;;;;;13.32;6.82;;;;;;;;;;5033444;28;20025;-80
2021/08/03 00:12:16;;;;;;;11.63;4.50;;;614.90;2432.00;;;;;;5032361;28;20427;-81
2021/08/03 00:14:47;;;;;;;11.93;3.97;;;;;;;;;;5032491;28;20021;-79
2021/08/03 00:17:15;;;;;;;5.55;3.13;;;;;;;;;;5032090;28;20017;-79
2021/08/03 00:19:41;;;;;;;6.45;3.70;;;;;;;;;;5032230;28;20021;-81
2021/08/03 00:22:08;;;;;;;9.38;3.95;;;;;;;;;;5032094;28;20030;-80
2021/08/03 00:24:35;;;;;;;8.88;3.70;;;;;;;;;;5032156;28;20048;-78
2021/08/03 00:27:02;;;;;;;4.82;3.40;;;;;;;;;;5032385;28;20067;-79
2021/08/03 00:29:28;;;;;;;9.30;3.63;;;;;;;;;;5032038;28;20022;-81
2021/08/03 00:31:54;;;;;;;7.28;4.00;;;;;;;;;;5032355;28;20022;-79
2021/08/03 00:34:20;;;;;;;9.48;4.82;;;;;;;;;;5032225;28;20017;-81
2021/08/03 00:36:46;;;;;;;9.98;5.53;;;614.80;2432.00;;;;;;5032214;28;20144;-81
2021/08/03 00:39:12;;;;;;;11.23;4.10;;;614.70;2432.00;;;;;;5034726;28;20029;-79
2021/08/03 00:42:03;;;;;;;12.02;4.28;;;614.60;2432.00;;;;;;5035863;28;20030;-81
2021/08/03 00:44:50;;;;;;;8.10;4.10;;;614.70;2432.00;;;;;;5036343;28;20030;-79
2021/08/03 00:47:18;;;;;;;6.13;3.88;;;614.40;2432.00;;;;;;5036022;28;20025;-81
2021/08/03 00:49:44;;;;;;;5.70;3.65;;;589.30;2432.00;;;;;;5035384;28;20060;-80
2021/08/03 00:52:11;;;;;;;10.80;3.67;;;589.70;2432.00;;;;;;5036049;28;20474;-80
2021/08/03 00:54:38;;;;;;;8.75;3.97;;;589.70;2432.00;;;;;;5037898;28;20419;-80
2021/08/03 00:57:06;;;;;;;7.45;3.65;;;614.40;2432.00;;;;;;5035242;28;20076;-81
2021/08/03 00:59:31;;;;;;;9.73;3.95;;;589.70;2432.00;;;;;;5050270;28;20013;-79
2021/08/03 01:01:58;;;;;;;5.05;3.28;;;589.60;2432.00;;;;;;5060440;28;20022;-78
2021/08/03 01:04:24;;;;;;;6.68;3.40;;;589.50;2432.00;;;;;;5060050;28;20085;-81
2021/08/03 01:07:22;;;;;;;5.47;3.03;;;589.60;2432.00;;;;;;5060116;28;20009;-81
2021/08/03 01:10:10;;;;;;;5.80;3.85;;;589.30;2432.00;;;;;;5060225;28;20112;-79
2021/08/03 01:12:45;;;;;;;9.20;4.35;;;589.40;2432.00;;;;;;5059757;28;20025;-81
2021/08/03 01:15:17;;;;;;;5.70;3.38;;;589.30;2432.00;;;;;;5043017;28;20029;-79
2021/08/03 01:17:59;;;;;;;6.82;3.80;;;589.30;2432.00;;;;;;5036746;28;20496;-79
2021/08/03 01:20:39;;;;;;;5.95;3.40;;;589.50;2432.00;;;;;;5037365;28;20367;-81
2021/08/03 01:23:38;;;;;;;5.78;3.47;;;589.50;2432.00;;;;;;5037650;28;20064;-79
2021/08/03 01:26:34;;;;;;;9.20;4.30;;;589.50;2432.00;;;;;;5037388;28;20061;-81
2021/08/03 01:29:04;;;;;;;7.15;3.50;;;589.60;2432.00;;;;;;5037762;28;20099;-81
2021/08/03 01:31:33;;;;;;;7.07;3.78;;;589.50;2432.00;;;;;;5037628;28;20029;-79
2021/08/03 01:34:14;;;;;;;13.55;5.18;;;589.50;2432.00;;;;;;5034438;28;20112;-79
2021/08/03 01:36:45;;;;;;;9.20;3.97;;;589.20;2432.00;;;;;;5035960;28;20025;-81
2021/08/03 01:39:13;;;;;;;6.35;4.22;;;589.30;2432.00;;;;;;5034326;28;20021;-80
2021/08/03 01:41:40;;;;;;;10.70;4.68;;;589.20;2432.00;;;;;;5034389;28;20025;-80
2021/08/03 01:44:10;;;;;;;10.60;4.50;;;589.10;2432.00;;;;;;5037482;28;20029;-79
2021/08/03 01:46:37;;;;;;;5.80;3.58;;;589.10;2432.00;;;;;;5034225;28;20033;-82
2021/08/03 01:49:03;;;;;;;9.85;3.78;;;589.00;2432.00;;;;;;5035568;28;20028;-79
2021/08/03 01:51:31;;;;;;;7.90;3.90;;;589.00;2432.00;;;;;;5033723;28;20502;-81
2021/08/03 01:53:58;;;;;;;8.98;4.53;;;588.80;2432.00;;;;;;5034015;28;20028;-82
2021/08/03 01:56:25;;;;;;;7.88;4.35;;;564.10;2432.00;;;;;;5033912;28;20029;-81
2021/08/03 01:58:52;;;;;;;10.88;3.88;;;563.90;2432.00;;;;;;5037343;28;20043;-79
2021/08/03 02:01:20;;;;;;;10.73;3.75;;;564.00;2432.00;;;;;;5037086;28;20116;-81
2021/08/03 02:03:48;;;;;;;10.82;4.10;;;564.10;2432.00;;;;;;5054855;28;20517;-79
2021/08/03 02:06:15;;;;;;;11.50;3.78;;;589.00;2432.00;;;;;;5054912;28;20021;-79
2021/08/03 02:08:42;;;;;;;8.48;4.10;;;588.80;2432.00;;;;;;5037077;28;20021;-81
2021/08/03 02:11:09;;;;;;;10.55;4.75;;;588.80;2432.00;;;;;;5037022;28;20013;-80
2021/08/03 02:13:34;;;;;;;10.07;4.13;;;588.80;2432.00;;;;;;5037219;28;20056;-81
2021/08/03 02:16:01;;;;;;;9.05;3.80;;;588.80;2432.00;;;;;;5036853;28;20045;-81
2021/08/03 02:18:27;;;;;;;8.82;3.60;;;588.90;2432.00;;;;;;5037060;28;20450;-80
2021/08/03 02:20:54;;;;;;;7.95;3.80;;;588.80;2432.00;;;;;;5036750;28;20061;-79
2021/08/03 02:23:20;;;;;;;7.95;3.78;;;589.00;2432.00;;;;;;5037046;28;20110;-79
2021/08/03 02:25:46;;;;;;;7.70;3.97;;;589.00;2432.00;;;;;;5036984;28;20128;-81
2021/08/03 02:28:12;;;;;;;8.55;3.70;;;589.10;2432.00;;;;;;5036648;28;20195;-79
2021/08/03 02:30:42;;;;;;;8.60;4.07;;;589.10;2432.00;;;;;;5036179;28;20024;-79
2021/08/03 02:33:23;;;;;;;7.82;4.07;;;589.10;2432.00;;;;;;5054215;28;20055;-79
2021/08/03 02:36:00;;;;;;;6.18;3.80;;;589.00;2432.00;;;;;;5036540;28;20183;-80
2021/08/03 02:38:28;;;;;;;9.23;4.30;;;588.80;2432.00;;;;;;5036672;28;20017;-80
2021/08/03 02:40:56;;;;;;;6.90;4.15;;;564.10;2432.00;;;;;;5036652;28;20032;-80
2021/08/03 02:43:25;;;;;;;7.40;3.67;;;563.90;2432.00;;;;;;5036306;28;20029;-82
2021/08/03 02:45:53;;;;;;;9.10;3.97;;;564.00;2432.00;;;;;;5036401;28;20162;-81
2021/08/03 02:48:23;;;;;;;5.20;3.80;;;563.80;2432.00;;;;;;5035834;28;20083;-81
2021/08/03 02:50:50;;;;;;;7.28;4.45;;;563.80;2432.00;;;;;;5035760;28;20401;-80
2021/08/03 02:53:27;;;;;;;9.05;4.32;;;;;;;;;;5035983;28;20025;-81
2021/08/03 02:55:59;;;;;;;9.73;3.75;;;;;;;;;;5036165;28;20099;-81
2021/08/03 02:58:31;;;;;;;8.00;4.13;;;;;;;;;;5035830;28;20573;-81
2021/08/03 03:00:57;;;;;;;;;;;;;;;;;;5036664;28;20490;-81
2021/08/03 03:03:24;;;;;;;8.95;4.15;;;;;;;;;;5054651;28;19908;-81
2021/08/03 03:06:05;;;;;;;11.75;4.40;;;;;;;;;;5037089;28;20351;-80
2021/08/03 03:08:33;;;;;;;8.57;5.03;;;563.50;2432.00;;;;;;5036358;28;20120;-81
2021/08/03 03:11:01;;;;;;;5.90;3.53;;;;;;;;;;5036024;28;20052;-81
2021/08/03 03:13:27;;;;;;;10.38;4.53;;;;;;;;;;5054327;28;20021;-81
2021/08/03 03:15:54;;;;;;;7.40;4.30;;;563.20;2432.00;;;;;;5054202;28;20013;-80
2021/08/03 03:18:21;;;;;;;9.95;4.13;;;538.50;2406.40;;;;;;5054037;28;20442;-81
2021/08/03 03:20:48;;;;;;;6.15;3.92;;;538.50;2406.40;;;;;;5036550;28;20025;-82
2021/08/03 03:23:17;;;;;;;6.28;4.20;;;538.50;2406.40;;;;;;5036661;28;20032;-81
2021/08/03 03:25:44;;;;;;;8.07;4.32;;;538.50;2406.40;;;;;;5056615;28;20089;-79
2021/08/03 03:28:12;;;;;;;8.63;4.97;;;538.40;2406.40;;;;;;5061085;28;20017;-81
2021/08/03 03:30:39;;;;;;;6.55;3.85;;;538.40;2406.40;;;;;;5060998;28;20013;-79
2021/08/03 03:33:06;;;;;;;10.13;4.00;;;538.40;2406.40;;;;;;5078014;28;20009;-79
2021/08/03 03:35:34;;;;;;;10.85;4.57;;;538.40;2406.40;;;;;;5076944;28;20084;-77
2021/08/03 03:38:00;;;;;;;7.65;4.38;;;538.40;2406.40;;;;;;5037437;28;20036;-79
2021/08/03 03:40:27;;;;;;;12.57;4.88;;;538.10;2406.40;;;;;;5037636;28;20111;-79
2021/08/03 03:42:56;;;;;;;9.75;4.88;;;538.10;2406.40;;;;;;5038195;28;20454;-80
2021/08/03 03:45:22;;;;;;;9.45;4.78;;;;;;;;;;5037860;28;20028;-80
2021/08/03 03:47:56;;;;;;;10.68;4.43;;;;;;;;;;5056452;28;20609;-80
2021/08/03 03:50:27;;;;;;;9.45;4.30;;;;;;;;;;5038655;28;20020;-79
2021/08/03 03:53:16;;;;;;;10.05;4.78;;;538.30;2406.40;;;;;;5037875;28;20120;-80
2021/08/03 03:55:50;;;;;;;7.97;4.70;;;537.90;2406.40;;;;;;5038209;28;20524;-81
2021/08/03 03:58:18;;;;;;;9.35;4.53;;;537.90;2406.40;;;;;;5036385;28;20094;-81
2021/08/03 04:00:44;;;;;;;10.32;4.35;;;537.70;2406.40;;;;;;5035627;28;20036;-79
2021/08/03 04:03:11;;;;;;;9.57;4.60;;;537.80;2406.40;;;;;;5053686;28;20025;-81
2021/08/03 04:05:39;;;;;;;8.77;4.80;;;512.90;2380.80;;;;;;5035768;28;20103;-79
2021/08/03 04:08:09;;;;;;;14.50;7.07;;;537.60;2406.40;;;;;;5036657;28;20031;-81
2021/08/03 04:10:37;;;;;;;9.85;4.70;;;537.60;2406.40;;;;;;5038205;28;20021;-80
2021/08/03 04:13:03;;;;;;;11.18;4.93;;;537.60;2406.40;;;;;;5038670;28;20079;-80
2021/08/03 04:15:32;;;;;;;9.20;4.70;;;;;;;;;;5039475;28;20045;-81
2021/08/03 04:17:58;;;;;;;9.98;4.53;;;;;;;;;;5039299;28;20021;-81
2021/08/03 04:20:24;;;;;;;12.38;4.53;;;;;;;;;;5038679;28;20017;-81
2021/08/03 04:22:51;;;;;;;9.27;4.38;;;;;;;;;;5039199;28;20070;-82
2021/08/03 04:25:17;;;;;;;9.20;4.25;;;;;;;;;;5039227;28;20017;-80
2021/08/03 04:27:44;;;;;;;10.82;4.00;;;;;;;;;;5038932;28;20020;-80
2021/08/03 04:30:11;;;;;;;11.88;5.22;;;;;;;;;;5039057;28;20025;-80
2021/08/03 04:32:37;;;;;;;8.35;4.43;;;;;;;;;;5056952;28;20029;-81
2021/08/03 04:35:03;;;;;;;11.55;5.78;;;;;;;;;;5038850;28;20013;-80
2021/08/03 04:37:36;;;;;;;13.55;5.03;;;;;;;;;;5039088;28;20367;-82
2021/08/03 04:40:02;;;;;;;12.55;5.88;;;;;;;;;;5056841;28;20100;-80
2021/08/03 04:42:28;;;;;;;8.38;5.82;;;;;;;;;;5056325;28;20466;-80
2021/08/03 04:44:54;;;;;;;8.80;4.70;;;;;;;;;;5038693;28;20021;-80
2021/08/03 04:47:20;;;;;;;8.30;4.97;;;;;;;;;;5038813;28;20033;-81
2021/08/03 04:49:46;;;;;;;7.82;4.78;;;;;;;;;;5038414;28;20049;-79
2021/08/03 04:52:12;;;;;;;10.05;5.43;;;;;;;;;;5038682;28;20434;-82
2021/08/03 04:54:38;;;;;;;10.95;6.05;;;;;;;;;;5056199;28;20064;-80
2021/08/03 04:57:04;;;;;;;12.70;4.43;;;;;;;;;;5034595;28;20103;-80
2021/08/03 04:59:30;;;;;;;11.60;4.63;;;;;;;;;;5035262;28;20022;-82
2021/08/03 05:01:56;;;;;;;9.15;4.47;;;;;;;;;;5034690;28;20017;-79
2021/08/03 05:04:22;;;;;;;8.43;4.68;;;538.20;2406.40;;;;;;5035026;28;20022;-79
2021/08/03 05:06:48;;;;;;;10.48;5.25;;;538.20;2406.40;;;;;;5034958;28;20116;-80
2021/08/03 05:09:14;;;;;;;8.38;4.85;;;538.10;2406.40;;;;;;5035692;28;20017;-78
2021/08/03 05:11:40;;;;;;;11.65;6.22;;;538.20;2406.40;;;;;;5034979;28;20029;-80
2021/08/03 05:14:06;;;;;;;10.25;5.93;;;538.10;2406.40;;;;;;5034940;28;20367;-78
2021/08/03 05:16:31;;;;;;;8.93;5.65;;;538.10;2406.40;;;;;;5034732;28;20021;-79
2021/08/03 05:18:57;;;;;;;11.60;5.82;;;538.00;2406.40;;;;;;5035330;28;20025;-80
2021/08/03 05:21:23;;;;;;;8.10;5.13;;;538.00;2406.40;;;;;;5034761;28;20017;-78
2021/08/03 05:23:48;;;;;;;9.00;5.55;;;538.10;2406.40;;;;;;5034585;28;20503;-80
2021/08/03 05:26:14;;;;;;;9.80;6.55;;;538.30;2406.40;;;;;;5033902;28;20018;-79
2021/08/03 05:28:40;;;;;;;14.00;7.72;;;538.40;2406.40;;;;;;5034679;28;20025;-79
2021/08/03 05:31:06;;;;;;;17.58;8.90;;;538.30;2406.40;;;;;;5035770;28;20021;-79
2021/08/03 05:33:31;;;;;;;19.75;11.30;;;538.30;2406.40;;;;;;5035884;28;20477;-80
2021/08/03 05:35:57;;;;;;;13.25;8.02;;;538.50;2406.40;;;;;;5034462;28;20518;-78
2021/08/03 05:38:23;;;;;;;14.00;6.95;;;538.50;2406.40;;;;;;5034397;28;20017;-82
2021/08/03 05:40:49;;;;;;;15.60;6.78;;;538.40;2406.40;;;;;;5034178;28;20026;-80
2021/08/03 05:43:14;;;;;;;15.98;6.75;;;538.50;2406.40;;;;;;5035622;28;20477;-81
2021/08/03 05:45:41;;;;;;;10.65;6.00;;;563.20;2432.00;;;;;;5034260;28;20071;-81
2021/08/03 05:48:07;;;;;;;14.27;6.47;;;563.50;2432.00;;;;;;5034276;28;20056;-82
2021/08/03 05:50:33;;;;;;;14.13;5.82;;;563.50;2432.00;;;;;;5033995;28;20041;-81
2021/08/03 05:52:58;;;;;;;8.38;4.82;;;563.60;2432.00;;;;;;5033890;28;20353;-82
2021/08/03 05:55:24;;;;;;;8.85;4.90;;;563.60;2432.00;;;;;;5034112;28;20510;-79
2021/08/03 05:57:50;;;;;;;12.68;5.85;;;563.70;2432.00;;;;;;5033391;28;20497;-79
2021/08/03 06:00:16;;;;;;;14.52;5.13;;;563.90;2432.00;;;;;;5033987;28;20371;-80
2021/08/03 06:02:42;;;;;;;8.10;4.60;;;563.90;2432.00;;;;;;5033924;28;20036;-79
2021/08/03 06:05:08;;;;;;;6.82;3.90;;;563.90;2432.00;;;;;;5033686;28;20025;-80
2021/08/03 06:07:40;;;;;;;10.05;5.22;;;589.50;2432.00;;;;;;5033711;28;20021;-80
2021/08/03 06:10:10;;;;;;;7.90;4.53;;;588.80;2432.00;;;;;;5033752;28;20025;-79
2021/08/03 06:12:39;;;;;;;6.60;3.97;;;588.90;2432.00;;;;;;5033545;28;20029;-79
2021/08/03 06:15:06;;;;;;;6.63;4.15;;;589.00;2432.00;;;;;;5033810;28;20025;-79
2021/08/03 06:17:37;;;;;;;8.80;5.05;;;589.00;2432.00;;;;;;5033707;28;20065;-81
2021/08/03 06:20:04;;;;;;;11.00;4.85;;;;;;;;;;5033666;28;20029;-80
2021/08/03 06:22:34;;;;;;;8.52;5.30;;;;;;;;;;5033211;28;20374;-80
2021/08/03 06:25:00;;;;;;;10.60;4.28;;;;;;;;;;5033333;28;20112;-81
2021/08/03 06:27:28;;;;;;;10.20;4.82;;;;;;;;;;5033107;28;20027;-81
2021/08/03 06:29:54;;;;;;;9.30;4.78;;;;;;;;;;5032965;28;20021;-80
2021/08/03 06:32:22;;;;;;;8.40;4.65;;;589.70;2432.00;;;;;;5032994;28;20080;-81
2021/08/03 06:34:48;;;;;;;10.60;5.18;;;589.60;2432.00;;;;;;5032513;28;20026;-80
2021/08/03 06:37:14;;;;;;;8.15;5.05;;;589.70;2432.00;;;;;;5033094;28;20022;-80
2021/08/03 06:39:41;;;;;;;10.85;6.03;;;589.70;2432.00;;;;;;5032842;28;20112;-81
2021/08/03 06:42:15;;;;;;;9.77;5.95;;;614.40;2432.00;;;;;;5032968;28;20025;-80
2021/08/03 06:44:53;;;;;;;10.80;5.88;;;614.50;2432.00;;;;;;5033092;28;20437;-80
2021/08/03 06:47:49;;;;;;;10.60;5.88;;;614.60;2432.00;;;;;;5032250;28;20352;-80
2021/08/03 06:50:18;;;;;;;12.85;5.13;;;614.80;2432.00;;;;;;5032538;28;20025;-79
2021/08/03 06:52:44;;;;;;;13.50;5.13;;;614.90;2432.00;;;;;;5032240;28;20022;-81
2021/08/03 06:55:13;;;;;;;11.38;5.78;;;614.80;2432.00;;;;;;5032709;28;20014;-80
2021/08/03 06:57:47;;;;;;;8.55;4.93;;;615.20;2432.00;;;;;;5032587;28;20371;-81
2021/08/03 07:00:13;;;;;;;12.50;5.78;;;640.00;2432.00;;;;;;5032369;28;20479;-79
2021/08/03 07:02:43;;;;;;;10.70;4.85;;;640.00;2432.00;;;;;;5032047;28;20044;-79
2021/08/03 07:05:16;;;;;;;8.45;4.90;;;640.00;2432.00;;;;;;5034164;28;20021;-79
2021/08/03 07:07:43;;;;;;;9.98;5.50;;;640.20;2432.00;;;;;;5032777;28;20021;-80
2021/08/03 07:10:10;;;;;;;8.43;4.70;;;640.20;2432.00;;;;;;5032216;28;20055;-79
2021/08/03 07:12:37;;;;;;;7.90;5.45;;;640.20;2432.00;;;;;;5032628;28;20032;-79
2021/08/03 07:15:03;;;;;;;8.02;4.80;;;640.40;2432.00;;;;;;5031833;28;20025;-81
2021/08/03 07:17:30;;;;;;;9.23;5.00;;;640.50;2432.00;;;;;;5032198;28;20022;-78
2021/08/03 07:20:01;;;;;;;9.68;4.30;;;640.70;2432.00;;;;;;5031811;28;20017;-79
2021/08/03 07:22:31;;;;;;;8.87;5.93;;;665.60;2432.00;;;;;;5029829;28;20029;-77
2021/08/03 07:24:57;;;;;;;9.75;3.80;;;665.70;2432.00;;;;;;5032032;28;20028;-78
2021/08/03 07:27:23;;;;;;;10.77;4.07;;;666.00;2432.00;;;;;;5026939;28;20025;-79
2021/08/03 07:29:49;;;;;;;9.60;5.00;;;666.00;2432.00;;;;;;5032019;28;20029;-80
2021/08/03 07:32:16;;;;;;;5.93;3.60;;;666.20;2432.00;;;;;;5032221;28;20406;-78
2021/08/03 07:34:42;;;;;;;5.90;3.80;;;666.30;2432.00;;;;;;5032058;28;20013;-80
2021/08/03 07:37:09;;;;;;;10.65;4.78;;;691.20;2432.00;;;;;;5032104;28;20029;-80
2021/08/03 07:39:38;;;;;;;10.52;5.28;;;691.40;2432.00;;;;;;5032078;28;20021;-78
2021/08/03 07:42:04;;;;;;;7.63;4.10;;;691.60;2432.00;;;;;;5032879;28;20025;-78
2021/08/03 07:44:30;;;;;;;6.35;3.58;;;691.70;2432.00;;;;;;5031965;28;20029;-79
2021/08/03 07:46:56;;;;;;;5.05;3.20;;;691.60;2432.00;;;;;;5032449;28;20032;-78
2021/08/03 07:49:22;;;;;;;5.95;3.40;;;691.60;2432.00;;;;;;5035110;28;20021;-77
2021/08/03 07:51:49;;;;;;;7.03;3.67;;;691.50;2432.00;;;;;;5037291;28;20032;-80
2021/08/03 07:54:15;;;;;;;8.48;4.57;;;691.80;2432.00;;;;;;5037475;28;20025;-78
2021/08/03 07:56:41;;;;;;;11.50;6.00;;;691.90;2432.00;;;;;;5038590;28;20025;-78
2021/08/03 07:59:07;;;;;;;6.75;4.25;;;692.10;2432.00;;;;;;5038911;28;20454;-78
2021/08/03 08:01:37;;;;;;;8.82;4.20;;;692.10;2432.00;;;;;;5039335;28;20035;-79
2021/08/03 08:04:03;;;;;;;6.43;3.03;;;691.90;2432.00;;;;;;5039173;28;20032;-80
2021/08/03 08:06:29;;;;;;;9.50;3.25;;;691.90;2432.00;;;;;;5039403;28;20040;-81
2021/08/03 08:08:54;;;;;;;6.95;3.90;;;691.90;2432.00;;;;;;5039183;28;20025;-76
2021/08/03 08:11:20;;;;;;;7.15;4.38;;;691.90;2432.00;;;;;;5038833;28;20021;-77
2021/08/03 08:13:46;;;;;;;6.15;3.80;;;716.90;2432.00;;;;;;5056952;28;20028;-78
2021/08/03 08:16:12;;;;;;;6.65;3.50;;;717.20;2432.00;;;;;;5039083;28;20021;-78
2021/08/03 08:18:37;;;;;;;11.35;4.93;;;717.00;2432.00;;;;;;5038619;28;20064;-77
2021/08/03 08:21:04;;;;;;;5.63;3.13;;;716.90;2432.00;;;;;;5038665;28;20025;-78
2021/08/03 08:23:30;;;;;;;9.73;3.28;;;691.80;2432.00;;;;;;5039033;28;20084;-78
2021/08/03 08:25:58;;;;;;;7.40;3.95;;;716.90;2432.00;;;;;;5038575;28;20513;-78
2021/08/03 08:28:24;;;;;;;8.73;3.72;;;717.10;2432.00;;;;;;5038785;28;20032;-76
2021/08/03 08:30:51;;;;;;;8.27;4.00;;;717.10;2432.00;;;;;;5038895;28;20028;-78
2021/08/03 08:33:17;;;;;;;5.32;3.63;;;717.00;2432.00;;;;;;5038218;28;20029;-78
2021/08/03 08:35:43;;;;;;;11.10;4.63;;;717.30;2432.00;;;;;;5038461;28;20040;-78
2021/08/03 08:38:09;;;;;;;7.88;4.30;;;717.70;2432.00;;;;;;5038687;28;20017;-78
2021/08/03 08:40:35;;;;;;;6.78;3.53;;;717.60;2432.00;;;;;;5040052;28;20041;-75
2021/08/03 08:43:01;;;;;;;9.38;4.10;;;742.40;2432.00;;;;;;5055855;28;20474;-76
2021/08/03 08:45:27;;;;;;;7.95;5.53;;;717.70;2432.00;;;;;;5038603;28;20446;-78
2021/08/03 08:47:53;;;;;;;6.82;4.88;;;717.40;2432.00;;;;;;5038534;28;20369;-77
2021/08/03 08:50:21;;;;;;;9.05;4.40;;;717.70;2432.00;;;;;;5038902;28;20024;-76
2021/08/03 08:52:58;;;;;;;9.43;4.82;;;717.70;2432.00;;;;;;5055809;28;20025;-77
2021/08/03 08:55:25;;;;;;;7.18;5.30;;;742.50;2432.00;;;;;;5056386;28;20455;-76
2021/08/03 08:57:51;;;;;;;8.93;5.78;;;742.50;2432.00;;;;;;5037891;28;20049;-79
2021/08/03 09:00:22;;;;;;;8.90;5.60;;;742.70;2432.00;;;;;;5037907;28;20071;-77
2021/08/03 09:02:53;;;;;;;9.85;5.05;;;743.00;2432.00;;;;;;5038097;28;20079;-77
2021/08/03 09:05:45;;;;;;;13.40;6.40;;;743.00;2432.00;;;;;;5056434;28;20391;-77
2021/08/03 09:08:11;;;;;;;;;;;768.10;2432.00;;;;;;5052759;28;20029;-76
2021/08/03 09:10:39;;;;;;;6.18;3.92;;;768.10;2432.00;;;;;;5038009;28;19901;-76
2021/08/03 09:13:12;;;;;;;8.30;5.10;;;768.30;2432.00;;;;;;5037709;28;20021;-75
2021/08/03 09:15:46;;;;;;;10.27;7.03;;;768.60;2406.40;;;;;;5037792;28;20021;-75
2021/08/03 09:18:14;;;;;;;8.60;5.93;;;768.90;2380.80;;;;;;5037939;28;20056;-76
2021/08/03 09:20:41;;;;;;;10.82;6.65;;;768.90;2380.80;;;;;;5055741;28;20356;-76
2021/08/03 09:23:07;;;;;;;11.13;6.45;;;793.70;2329.60;;;;;;5054825;28;20040;-74
2021/08/03 09:25:33;;;;;;;11.43;7.43;;;793.90;2304.00;;;;;;5037482;28;20020;-75
2021/08/03 09:28:02;;;;;;;7.38;5.32;;;794.20;2304.00;;;;;;5037200;28;20432;-75
2021/08/03 09:30:31;;;;;;;8.73;5.57;;;794.30;2201.60;;;;;;5055281;28;20031;-76
2021/08/03 09:32:58;;;;;;;14.38;9.50;;;793.80;2176.00;;;;;;5037646;28;20025;-78
2021/08/03 09:35:26;;;;;;;16.33;14.65;;;793.80;2176.00;;;;;;5037169;28;20028;-75
2021/08/03 09:37:53;;;;;;;14.07;8.10;;;794.30;2176.00;;;;;;5055436;28;20028;-76
2021/08/03 09:40:32;;;;;;;12.02;8.35;;;819.20;2124.80;;;;;;5037605;28;20021;-77
2021/08/03 09:43:14;;;;;;;12.80;9.07;;;819.40;2099.20;;;;;;5037192;28;20087;-76
2021/08/03 09:45:43;;;;;;;7.13;4.95;;;819.50;1971.20;;;;;;5037429;28;20083;-77
2021/08/03 09:48:13;;;;;;;7.78;4.82;;;819.40;1868.80;;;;;;5037286;28;20405;-77
2021/08/03 09:51:10;;;;;;;7.05;5.45;;;819.50;1894.40;;;;;;5037079;28;20021;-77
2021/08/03 09:53:46;;;;;;;10.23;5.07;;;819.60;1817.60;;;;;;5037534;28;20025;-79
2021/08/03 09:56:27;;;;;;;8.73;5.13;;;819.80;1766.40;;;;;;5054899;28;20119;-78
2021/08/03 09:59:00;;;;;;;8.30;5.47;;;820.00;1766.40;;;;;;5036971;28;20116;-79
2021/08/03 10:01:27;;;;;;;7.68;4.25;;;844.80;1792.00;;;;;;5037196;28;20025;-78
2021/08/03 10:03:56;;;;;;;10.02;4.93;;;820.10;1638.40;;;;;;5037074;28;20017;-78
2021/08/03 10:06:22;;;;;;;8.18;4.70;;;819.80;1689.60;;;;;;5037440;28;20044;-77
2021/08/03 10:08:52;;;;;;;9.80;5.38;;;819.90;1638.40;;;;;;5037236;28;20074;-78
2021/08/03 10:11:21;;;;;;;8.43;5.60;;;820.10;1766.40;;;;;;5036916;28;20020;-78
2021/08/03 10:13:47;;;;;;;8.20;4.05;;;845.20;1766.40;;;;;;5037075;28;20108;-77
2021/08/03 10:16:16;;;;;;;9.73;7.10;;;845.40;1638.40;;;;;;5036954;28;20021;-77
2021/08/03 10:18:46;;;;;;;21.55;16.55;;;845.70;1612.80;;;;;;5036637;28;20071;-76
2021/08/03 10:21:28;;;;;;;12.82;11.38;;;870.40;1587.20;;;;;;5036713;28;20025;-78
2021/08/03 10:24:16;;;;;;;7.80;5.20;;;870.50;1561.60;;;;;;5036409;28;20378;-77
2021/08/03 10:27:00;;;;;;;6.13;4.28;;;870.60;1561.60;;;;;;5035329;28;20061;-77
2021/08/03 10:29:27;;;;;;;8.27;5.13;;;870.70;1510.40;;;;;;5054473;28;20031;-77
2021/08/03 10:31:53;;;;;;;8.65;5.50;;;870.90;1536.00;;;;;;5036533;28;20091;-77
2021/08/03 10:34:50;;;;;;;8.20;4.07;;;871.00;1536.00;;;;;;5054353;28;20024;-77
2021/08/03 10:37:16;;;;;;;6.43;4.07;;;871.10;1510.40;;;;;;5036977;28;20094;-78
2021/08/03 10:39:49;;;;;;;6.03;3.05;;;871.20;1510.40;;;;;;5036279;28;20454;-78
2021/08/03 10:42:14;;;;;;;5.20;2.78;;;871.20;1484.80;;;;;;5036044;28;20033;-77
2021/08/03 10:44:42;;;;;;;8.02;3.80;;;871.20;1510.40;;;;;;5053706;28;20027;-75
2021/08/03 10:47:39;;;;;;;7.47;4.80;;;871.20;1484.80;;;;;;5036091;28;20028;-77
2021/08/03 10:50:14;;;;;;;10.07;6.13;;;871.10;1459.20;;;;;;5023907;28;20029;-78
2021/08/03 10:52:46;;;;;;;8.43;5.65;;;871.10;1433.60;;;;;;5035698;28;20021;-79
2021/08/03 10:55:42;;;;;;;14.13;10.32;;;896.20;1484.80;;;;;;5035987;28;20024;-76
2021/08/03 10:58:13;;;;;;;7.88;4.45;;;896.50;1433.60;;;;;;5035858;28;20053;-80
2021/08/03 11:00:48;;;;;;;9.48;4.30;;;896.90;1459.20;;;;;;5035867;28;20436;-81
2021/08/03 11:03:35;;;;;;;8.90;4.18;;;921.80;1484.80;;;;;;5036042;28;20124;-80
2021/08/03 11:06:03;;;;;;;7.30;2.80;;;921.60;1408.00;;;;;;5035829;28;20021;-77
2021/08/03 11:08:31;;;;;;;6.35;3.40;;;896.70;1356.80;;;;;;5054128;28;20033;-78
2021/08/03 11:11:05;;;;;;;5.38;3.33;;;896.90;1356.80;;;;;;5035957;28;20024;-80
2021/08/03 11:13:52;;;;;;;8.88;4.18;;;896.90;1408.00;;;;;;5035980;28;20459;-79
2021/08/03 11:16:20;;;;;;;7.30;3.92;;;921.70;1433.60;;;;;;5053860;28;20020;-78
2021/08/03 11:18:50;;;;;;;7.30;3.95;;;922.00;1408.00;;;;;;5035970;28;20439;-80
2021/08/03 11:21:42;;;;;;;6.50;3.72;;;922.00;1382.40;;;;;;5035799;28;20370;-78
2021/08/03 11:24:14;;;;;;;6.30;3.33;;;922.00;1356.80;;;;;;5027028;28;20051;-79
2021/08/03 11:26:51;;;;;;;6.95;3.50;;;922.30;1382.40;;;;;;5036242;28;20518;-81
2021/08/03 11:29:37;;;;;;;8.55;4.03;;;922.30;1382.40;;;;;;5036169;28;20043;-79
2021/08/03 11:32:08;;;;;;;5.88;3.25;;;922.50;1382.40;;;;;;5035753;28;20035;-79
2021/08/03 11:34:42;;;;;;;5.70;3.50;;;921.90;1331.20;;;;;;5053979;28;20374;-78
2021/08/03 11:37:15;;;;;;;7.20;4.10;;;922.50;1356.80;;;;;;5053751;28;20053;-79
2021/08/03 11:39:50;;;;;;;5.68;3.17;;;947.30;1356.80;;;;;;5035686;28;20017;-79
2021/08/03 11:42:32;;;;;;;8.32;3.63;;;947.40;1356.80;;;;;;5035248;28;20033;-83
2021/08/03 11:45:07;;;;;;;10.43;5.63;;;947.60;1305.60;;;;;;5035990;28;20032;-81
2021/08/03 11:47:44;;;;;;;5.82;3.35;;;947.60;1331.20;;;;;;5036119;28;20397;-79
2021/08/03 11:50:12;;;;;;;4.80;3.30;;;922.30;1331.20;;;;;;5035654;28;20116;-79
2021/08/03 11:52:37;;;;;;;6.78;4.18;;;922.00;1331.20;;;;;;5035856;28;20025;-81
2021/08/03 11:55:04;;;;;;;7.43;4.70;;;921.80;1331.20;;;;;;5035417;28;20029;-81
2021/08/03 11:57:36;;;;;;;6.45;3.40;;;922.30;1331.20;;;;;;5035502;28;20532;-80
2021/08/03 12:00:09;;;;;;;7.15;3.50;;;922.20;1305.60;;;;;;5047592;28;20021;-80
2021/08/03 12:02:36;;;;;;;6.40;3.22;;;922.00;1280.00;;;;;;5076263;28;20029;-77
2021/08/03 12:05:08;;;;;;;7.20;4.80;;;896.80;1331.20;;;;;;5055553;28;20021;-77
2021/08/03 12:07:34;;;;;;;8.73;4.50;;;896.80;1356.80;;;;;;5073044;28;20025;-76
2021/08/03 12:10:00;;;;;;;8.73;5.45;;;896.70;1356.80;;;;;;5050763;28;20025;-75
2021/08/03 12:12:26;;;;;;;5.75;3.70;;;896.60;1408.00;;;;;;5052914;28;20025;-74
2021/08/03 12:15:06;;;;;;;8.10;6.38;;;896.70;1382.40;;;;;;5038429;28;20025;-77
2021/08/03 12:17:32;;;;;;;6.63;4.70;;;921.60;1356.80;;;;;;5035024;28;20374;-76
2021/08/03 12:20:04;;;;;;;8.80;4.05;;;896.10;1382.40;;;;;;5035214;28;20120;-78
2021/08/03 12:22:31;;;;;;;7.85;4.80;;;896.40;1433.60;;;;;;5053084;28;20082;-77
2021/08/03 12:25:02;;;;;;;6.47;4.10;;;896.40;1408.00;;;;;;5035137;28;20032;-77
2021/08/03 12:27:40;;;;;;;16.63;4.60;;;896.70;1382.40;;;;;;5053405;28;20366;-76
2021/08/03 12:30:27;;;;;;;13.10;6.35;;;921.60;1433.60;;;;;;5035116;28;20021;-76
2021/08/03 12:32:53;;;;;;;10.38;4.10;;;922.10;1356.80;;;;;;5035030;28;20454;-77
2021/08/03 12:35:19;;;;;;;6.20;4.38;;;922.40;1356.80;;;;;;5037622;28;20032;-78
2021/08/03 12:37:44;;;;;;;9.82;4.68;;;922.50;1305.60;;;;;;5038511;28;20108;-79
2021/08/03 12:40:32;;;;;;;8.32;3.63;;;947.40;1356.80;;;;;;5056771;28;20057;-79
2021/08/03 12:42:59;;;;;;;6.13;3.90;;;922.50;1356.80;;;;;;5038719;28;20363;-79
2021/08/03 12:45:25;;;;;;;6.93;4.57;;;947.50;1356.80;;;;;;5038695;28;20025;-80
2021/08/03 12:47:56;;;;;;;7.28;3.33;;;947.70;1356.80;;;;;;5038621;28;20461;-78